Saint Paul, Minnesota
Current Conditions -  °F | °C
As of 1:53 PM on Tuesday 25 Nov 2014 (Local Time) from KSTP Reporting Station
Overcast Overcast  
Wind Chill: -6°   Ceiling: 6000
Heat Index: -6°   Visibility: 10mi
Dew Point: -11°   Wind: 3mph
Humidity: 68%   Direction: 170°S
Pressure: 30.06"   Gusts: NA
Location:  44.93°N, 93.07°W
Report Text: KSTP 251953Z 17003KT 10SM FEW037 OVC060 M06/M11 A3006 RMK AO2 SLP190 T10561106
Loading
Personal Weather Stations






























Interactive Weather Map New forecast layout! Learn more

10-Day Weather Forecast

Advertisements
Track Severe Weather on mobile